sensor_id;sensor_type;location;lat;lon;timestamp;pressure;altitude;pressure_sealevel;temperature;humidity
63819;BME280;49970;54.976;73.248;2024-01-15T00:00:53;100706.88;;;-17.76;84.64
63819;BME280;49970;54.976;73.248;2024-01-15T00:03:34;100703.31;;;-17.79;85.26
63819;BME280;49970;54.976;73.248;2024-01-15T00:06:37;100709.88;;;-17.83;84.21
63819;BME280;49970;54.976;73.248;2024-01-15T00:09:04;100688.56;;;-17.88;84.83
63819;BME280;49970;54.976;73.248;2024-01-15T00:11:32;100709.78;;;-17.85;84.97
63819;BME280;49970;54.976;73.248;2024-01-15T00:13:59;100715.81;;;-17.82;84.34
63819;BME280;49970;54.976;73.248;2024-01-15T00:16:25;100682.75;;;-18.03;84.35
63819;BME280;49970;54.976;73.248;2024-01-15T00:18:51;100718.19;;;-17.86;84.32
63819;BME280;49970;54.976;73.248;2024-01-15T00:21:17;100705.66;;;-18.00;84.67
63819;BME280;49970;54.976;73.248;2024-01-15T00:24:02;100739.28;;;-17.85;84.75
63819;BME280;49970;54.976;73.248;2024-01-15T00:26:28;100733.28;;;-17.87;83.68
63819;BME280;49970;54.976;73.248;2024-01-15T00:28:54;100740.66;;;-17.92;83.87
63819;BME280;49970;54.976;73.248;2024-01-15T00:31:21;100751.63;;;-17.91;85.23
63819;BME280;49970;54.976;73.248;2024-01-15T00:33:47;100753.22;;;-17.93;84.88
63819;BME280;49970;54.976;73.248;2024-01-15T00:36:13;100755.59;;;-17.96;83.95
63819;BME280;49970;54.976;73.248;2024-01-15T00:38:40;100754.66;;;-17.98;84.81
63819;BME280;49970;54.976;73.248;2024-01-15T00:41:06;100766.19;;;-18.03;83.78
63819;BME280;49970;54.976;73.248;2024-01-15T00:43:53;100756.88;;;-18.04;83.51
63819;BME280;49970;54.976;73.248;2024-01-15T00:47:29;100770.28;;;-18.05;84.71
63819;BME280;49970;54.976;73.248;2024-01-15T00:49:55;100776.94;;;-18.07;83.76
63819;BME280;49970;54.976;73.248;2024-01-15T00:52:21;100788.66;;;-18.09;83.78
63819;BME280;49970;54.976;73.248;2024-01-15T00:54:48;100797.00;;;-18.11;84.57
63819;BME280;49970;54.976;73.248;2024-01-15T00:57:14;100783.91;;;-18.20;83.95
63819;BME280;49970;54.976;73.248;2024-01-15T00:59:40;100793.56;;;-18.13;84.04
63819;BME280;49970;54.976;73.248;2024-01-15T01:02:06;100780.69;;;-18.17;84.03
63819;BME280;49970;54.976;73.248;2024-01-15T01:04:32;100780.69;;;-18.17;83.22
63819;BME280;49970;54.976;73.248;2024-01-15T01:06:59;100795.03;;;-18.16;83.54
63819;BME280;49970;54.976;73.248;2024-01-15T01:09:25;100799.25;;;-18.17;84.03
63819;BME280;49970;54.976;73.248;2024-01-15T01:11:51;100804.19;;;-18.18;83.19
63819;BME280;49970;54.976;73.248;2024-01-15T01:17:02;100805.63;;;-18.23;82.48
63819;BME280;49970;54.976;73.248;2024-01-15T01:19:29;100813.84;;;-18.27;83.63
63819;BME280;49970;54.976;73.248;2024-01-15T01:22:00;100824.91;;;-18.25;82.93
63819;BME280;49970;54.976;73.248;2024-01-15T01:24:45;100829.63;;;-18.31;83.04
63819;BME280;49970;54.976;73.248;2024-01-15T01:27:30;100839.84;;;-18.30;82.26
63819;BME280;49970;54.976;73.248;2024-01-15T01:29:56;100848.13;;;-18.32;83.11
63819;BME280;49970;54.976;73.248;2024-01-15T01:32:22;100841.50;;;-18.30;82.51
63819;BME280;49970;54.976;73.248;2024-01-15T01:34:49;100843.13;;;-18.31;82.33
63819;BME280;49970;54.976;73.248;2024-01-15T01:37:15;100845.66;;;-18.31;82.48
63819;BME280;49970;54.976;73.248;2024-01-15T01:39:42;100844.03;;;-18.30;83.44
63819;BME280;49970;54.976;73.248;2024-01-15T01:42:28;100851.50;;;-18.32;83.87
63819;BME280;49970;54.976;73.248;2024-01-15T01:45:32;100858.16;;;-18.34;82.33
63819;BME280;49970;54.976;73.248;2024-01-15T01:47:59;100868.97;;;-18.37;82.50
63819;BME280;49970;54.976;73.248;2024-01-15T01:50:26;100884.13;;;-18.37;82.50
63819;BME280;49970;54.976;73.248;2024-01-15T01:52:53;100874.72;;;-18.39;82.66
63819;BME280;49970;54.976;73.248;2024-01-15T01:55:20;100878.81;;;-18.41;83.06
63819;BME280;49970;54.976;73.248;2024-01-15T01:57:47;100887.97;;;-18.43;83.13
63819;BME280;49970;54.976;73.248;2024-01-15T02:00:33;100883.81;;;-18.43;83.22
63819;BME280;49970;54.976;73.248;2024-01-15T02:02:59;100889.63;;;-18.44;82.26
63819;BME280;49970;54.976;73.248;2024-01-15T02:05:26;100884.50;;;-18.45;82.92
63819;BME280;49970;54.976;73.248;2024-01-15T02:07:57;100881.91;;;-18.47;81.73
63819;BME280;49970;54.976;73.248;2024-01-15T02:10:23;100884.31;;;-18.48;83.31
63819;BME280;49970;54.976;73.248;2024-01-15T02:12:50;100860.50;;;-18.68;81.91
63819;BME280;49970;54.976;73.248;2024-01-15T02:15:16;100913.59;;;-18.52;83.07
63819;BME280;49970;54.976;73.248;2024-01-15T02:18:02;100919.56;;;-18.51;82.15
63819;BME280;49970;54.976;73.248;2024-01-15T02:20:29;100915.75;;;-18.59;82.98
63819;BME280;49970;54.976;73.248;2024-01-15T02:23:14;100925.06;;;-18.58;81.87
63819;BME280;49970;54.976;73.248;2024-01-15T02:25:43;100926.72;;;-18.59;82.56
63819;BME280;49970;54.976;73.248;2024-01-15T02:28:12;100939.25;;;-18.61;82.86
63819;BME280;49970;54.976;73.248;2024-01-15T02:30:40;100930.63;;;-18.64;81.90
63819;BME280;49970;54.976;73.248;2024-01-15T02:33:07;100942.38;;;-18.65;82.71
63819;BME280;49970;54.976;73.248;2024-01-15T02:35:34;100936.38;;;-18.67;82.99
63819;BME280;49970;54.976;73.248;2024-01-15T02:38:03;100938.78;;;-18.70;82.16
63819;BME280;49970;54.976;73.248;2024-01-15T02:40:29;100940.47;;;-18.69;82.46
63819;BME280;49970;54.976;73.248;2024-01-15T02:43:14;100943.81;;;-18.70;81.59
63819;BME280;49970;54.976;73.248;2024-01-15T02:45:40;100952.72;;;-18.76;81.75
63819;BME280;49970;54.976;73.248;2024-01-15T02:48:24;100954.81;;;-18.84;82.57
63819;BME280;49970;54.976;73.248;2024-01-15T02:50:51;100971.03;;;-18.80;82.53
63819;BME280;49970;54.976;73.248;2024-01-15T02:53:17;100978.50;;;-18.82;81.82
63819;BME280;49970;54.976;73.248;2024-01-15T02:56:02;100980.94;;;-18.83;81.95
63819;BME280;49970;54.976;73.248;2024-01-15T02:58:28;100989.31;;;-18.84;81.72
63819;BME280;49970;54.976;73.248;2024-01-15T03:00:54;100985.63;;;-18.90;81.37
63819;BME280;49970;54.976;73.248;2024-01-15T03:03:20;100987.47;;;-18.87;82.03
63819;BME280;49970;54.976;73.248;2024-01-15T03:05:47;100998.34;;;-18.88;81.88
63819;BME280;49970;54.976;73.248;2024-01-15T03:08:20;101011.84;;;-18.88;82.18
63819;BME280;49970;54.976;73.248;2024-01-15T03:10:48;101008.19;;;-18.93;81.92
63819;BME280;49970;54.976;73.248;2024-01-15T03:13:42;101016.63;;;-18.92;81.88
63819;BME280;49970;54.976;73.248;2024-01-15T03:18:54;101011.31;;;-18.97;81.30
63819;BME280;49970;54.976;73.248;2024-01-15T03:21:29;101009.47;;;-18.99;81.62
63819;BME280;49970;54.976;73.248;2024-01-15T03:23:55;101003.63;;;-18.98;81.59
63819;BME280;49970;54.976;73.248;2024-01-15T03:26:21;101004.34;;;-19.01;81.07
63819;BME280;49970;54.976;73.248;2024-01-15T03:28:47;101011.81;;;-19.02;82.47
63819;BME280;49970;54.976;73.248;2024-01-15T03:31:13;101015.91;;;-19.04;81.19
63819;BME280;49970;54.976;73.248;2024-01-15T03:33:58;101016.59;;;-19.07;80.97
63819;BME280;49970;54.976;73.248;2024-01-15T03:36:24;101010.22;;;-19.15;81.06
63819;BME280;49970;54.976;73.248;2024-01-15T03:38:50;101014.88;;;-19.08;81.69
63819;BME280;49970;54.976;73.248;2024-01-15T03:41:30;101017.31;;;-19.09;82.42
63819;BME280;49970;54.976;73.248;2024-01-15T03:43:56;101023.31;;;-19.07;81.03
63819;BME280;49970;54.976;73.248;2024-01-15T03:46:22;101003.44;;;-19.16;81.56
63819;BME280;49970;54.976;73.248;2024-01-15T03:48:48;101026.63;;;-19.08;81.21
63819;BME280;49970;54.976;73.248;2024-01-15T03:51:18;101028.28;;;-19.09;81.60
63819;BME280;49970;54.976;73.248;2024-01-15T03:54:04;101031.56;;;-19.10;81.82
63819;BME280;49970;54.976;73.248;2024-01-15T04:05:00;101041.66;;;-19.10;82.42
63819;BME280;49970;54.976;73.248;2024-01-15T04:08:31;101042.56;;;-19.09;81.66
63819;BME280;49970;54.976;73.248;2024-01-15T04:12:02;101053.59;;;-19.07;81.44
63819;BME280;49970;54.976;73.248;2024-01-15T04:15:33;101065.44;;;-19.06;81.67
63819;BME280;49970;54.976;73.248;2024-01-15T04:19:04;101071.34;;;-19.06;82.29
63819;BME280;49970;54.976;73.248;2024-01-15T04:22:36;101074.78;;;-19.05;82.15
63819;BME280;49970;54.976;73.248;2024-01-15T04:26:06;101072.94;;;-19.08;82.20
63819;BME280;49970;54.976;73.248;2024-01-15T04:29:38;101085.03;;;-19.02;82.40
63819;BME280;49970;54.976;73.248;2024-01-15T04:40:24;101108.22;;;-18.95;82.78
63819;BME280;49970;54.976;73.248;2024-01-15T04:42:54;101113.34;;;-18.93;82.46
63819;BME280;49970;54.976;73.248;2024-01-15T04:45:20;101094.78;;;-19.08;82.29
63819;BME280;49970;54.976;73.248;2024-01-15T04:48:07;101113.53;;;-18.90;82.66
63819;BME280;49970;54.976;73.248;2024-01-15T04:53:19;101132.19;;;-18.88;82.03
63819;BME280;49970;54.976;73.248;2024-01-15T04:55:45;101142.28;;;-18.88;82.80
63819;BME280;49970;54.976;73.248;2024-01-15T04:58:11;101144.91;;;-18.87;82.24
63819;BME280;49970;54.976;73.248;2024-01-15T05:00:56;101146.38;;;-18.90;81.63
63819;BME280;49970;54.976;73.248;2024-01-15T05:03:41;101110.72;;;-19.09;82.87
63819;BME280;49970;54.976;73.248;2024-01-15T05:06:07;101151.53;;;-18.89;81.58
63819;BME280;49970;54.976;73.248;2024-01-15T05:08:33;101144.34;;;-18.96;82.18
63819;BME280;49970;54.976;73.248;2024-01-15T05:10:59;101166.84;;;-18.86;82.46
63819;BME280;49970;54.976;73.248;2024-01-15T05:13:26;101160.06;;;-18.87;82.70
63819;BME280;49970;54.976;73.248;2024-01-15T05:15:52;101161.63;;;-18.89;82.68
63819;BME280;49970;54.976;73.248;2024-01-15T05:18:37;101168.88;;;-18.80;81.74
63819;BME280;49970;54.976;73.248;2024-01-15T05:21:04;101164.88;;;-18.76;81.47
63819;BME280;49970;54.976;73.248;2024-01-15T05:23:31;101161.75;;;-18.72;81.94
63819;BME280;49970;54.976;73.248;2024-01-15T05:25:57;101166.09;;;-18.70;83.30
63819;BME280;49970;54.976;73.248;2024-01-15T05:28:29;101158.53;;;-18.70;82.99
63819;BME280;49970;54.976;73.248;2024-01-15T05:30:55;101163.81;;;-18.65;82.57
63819;BME280;49970;54.976;73.248;2024-01-15T05:33:23;101171.84;;;-18.57;82.92
63819;BME280;49970;54.976;73.248;2024-01-15T05:35:49;101170.38;;;-18.54;82.86
63819;BME280;49970;54.976;73.248;2024-01-15T05:38:16;101173.97;;;-18.50;82.87
63819;BME280;49970;54.976;73.248;2024-01-15T05:40:43;101175.97;;;-18.45;83.34
63819;BME280;49970;54.976;73.248;2024-01-15T05:43:09;101182.88;;;-18.42;81.99
63819;BME280;49970;54.976;73.248;2024-01-15T05:45:35;101192.38;;;-18.38;82.43
63819;BME280;49970;54.976;73.248;2024-01-15T05:48:01;101183.03;;;-18.39;82.88
63819;BME280;49970;54.976;73.248;2024-01-15T05:50:28;101195.84;;;-18.36;82.36
63819;BME280;49970;54.976;73.248;2024-01-15T05:52:54;101197.00;;;-18.31;83.12
63819;BME280;49970;54.976;73.248;2024-01-15T05:55:20;101195.97;;;-18.34;83.01
63819;BME280;49970;54.976;73.248;2024-01-15T05:57:46;101210.78;;;-18.26;82.09
63819;BME280;49970;54.976;73.248;2024-01-15T06:00:36;101215.13;;;-18.23;82.93
63819;BME280;49970;54.976;73.248;2024-01-15T06:03:04;101215.66;;;-18.29;83.07
63819;BME280;49970;54.976;73.248;2024-01-15T06:05:30;101229.81;;;-18.18;82.73
63819;BME280;49970;54.976;73.248;2024-01-15T06:07:56;101234.94;;;-18.16;82.77
63819;BME280;49970;54.976;73.248;2024-01-15T06:10:23;101231.38;;;-18.20;83.38
63819;BME280;49970;54.976;73.248;2024-01-15T06:12:49;101235.13;;;-18.13;83.28
63819;BME280;49970;54.976;73.248;2024-01-15T06:15:16;101239.41;;;-18.12;83.73
63819;BME280;49970;54.976;73.248;2024-01-15T06:17:42;101230.75;;;-18.16;83.53
63819;BME280;49970;54.976;73.248;2024-01-15T06:20:08;101254.06;;;-18.06;82.82
63819;BME280;49970;54.976;73.248;2024-01-15T06:22:35;101250.84;;;-18.04;83.12
63819;BME280;49970;54.976;73.248;2024-01-15T06:25:02;101245.00;;;-18.03;83.14
63819;BME280;49970;54.976;73.248;2024-01-15T06:27:29;101255.38;;;-17.98;83.54
63819;BME280;49970;54.976;73.248;2024-01-15T06:29:55;101241.94;;;-17.97;82.45
63819;BME280;49970;54.976;73.248;2024-01-15T06:32:22;101247.00;;;-17.97;83.46
63819;BME280;49970;54.976;73.248;2024-01-15T06:34:48;101263.34;;;-17.92;82.45
63819;BME280;49970;54.976;73.248;2024-01-15T06:37:33;101270.13;;;-17.91;82.12
63819;BME280;49970;54.976;73.248;2024-01-15T06:39:59;101268.47;;;-17.91;83.41
63819;BME280;49970;54.976;73.248;2024-01-15T06:42:45;101274.50;;;-17.89;82.52
63819;BME280;49970;54.976;73.248;2024-01-15T06:46:21;101282.97;;;-17.88;83.57
63819;BME280;49970;54.976;73.248;2024-01-15T06:49:32;101288.03;;;-17.88;82.40
63819;BME280;49970;54.976;73.248;2024-01-15T06:51:58;101286.44;;;-17.86;83.35
63819;BME280;49970;54.976;73.248;2024-01-15T06:54:24;101288.97;;;-17.86;83.74
63819;BME280;49970;54.976;73.248;2024-01-15T06:57:05;101286.19;;;-17.91;83.77
63819;BME280;49970;54.976;73.248;2024-01-15T06:59:33;101288.19;;;-17.85;83.01
63819;BME280;49970;54.976;73.248;2024-01-15T07:02:01;101306.06;;;-17.82;82.88
63819;BME280;49970;54.976;73.248;2024-01-15T07:04:27;101317.16;;;-17.80;83.27
63819;BME280;49970;54.976;73.248;2024-01-15T07:06:53;101315.41;;;-17.81;83.43
63819;BME280;49970;54.976;73.248;2024-01-15T07:09:20;101315.41;;;-17.81;83.45
63819;BME280;49970;54.976;73.248;2024-01-15T07:11:46;101331.44;;;-17.80;83.85
63819;BME280;49970;54.976;73.248;2024-01-15T07:14:20;101333.22;;;-17.79;82.34
63819;BME280;49970;54.976;73.248;2024-01-15T07:16:46;101341.75;;;-17.77;83.54
63819;BME280;49970;54.976;73.248;2024-01-15T07:19:19;101341.56;;;-17.80;82.36
63819;BME280;49970;54.976;73.248;2024-01-15T07:21:45;101350.13;;;-17.78;83.00
63819;BME280;49970;54.976;73.248;2024-01-15T07:24:12;101363.84;;;-17.75;83.76
63819;BME280;49970;54.976;73.248;2024-01-15T07:26:38;101354.31;;;-17.79;83.60
63819;BME280;49970;54.976;73.248;2024-01-15T07:29:22;101361.47;;;-17.72;83.03
63819;BME280;49970;54.976;73.248;2024-01-15T07:31:52;101361.63;;;-17.69;82.59
63819;BME280;49970;54.976;73.248;2024-01-15T07:34:37;101368.47;;;-17.68;83.43
63819;BME280;49970;54.976;73.248;2024-01-15T07:37:03;101366.69;;;-17.69;83.58
63819;BME280;49970;54.976;73.248;2024-01-15T07:39:30;101366.19;;;-17.63;83.67
63819;BME280;49970;54.976;73.248;2024-01-15T07:41:56;101370.53;;;-17.61;83.92
63819;BME280;49970;54.976;73.248;2024-01-15T07:44:22;101364.81;;;-17.58;82.91
63819;BME280;49970;54.976;73.248;2024-01-15T07:46:49;101371.69;;;-17.55;84.02
63819;BME280;49970;54.976;73.248;2024-01-15T07:49:15;101371.88;;;-17.52;83.52
63819;BME280;49970;54.976;73.248;2024-01-15T07:51:42;101371.19;;;-17.50;82.73
63819;BME280;49970;54.976;73.248;2024-01-15T07:54:11;101377.19;;;-17.48;82.81
63819;BME280;49970;54.976;73.248;2024-01-15T07:56:59;101372.06;;;-17.49;83.71
63819;BME280;49970;54.976;73.248;2024-01-15T07:59:26;101380.00;;;-17.43;83.61
63819;BME280;49970;54.976;73.248;2024-01-15T08:01:53;101385.16;;;-17.42;83.27
63819;BME280;49970;54.976;73.248;2024-01-15T08:04:19;101384.44;;;-17.39;84.11
63819;BME280;49970;54.976;73.248;2024-01-15T08:06:46;101387.84;;;-17.39;83.97
63819;BME280;49970;54.976;73.248;2024-01-15T08:09:12;101386.22;;;-17.38;84.17
63819;BME280;49970;54.976;73.248;2024-01-15T08:11:42;101398.16;;;-17.36;83.87
63819;BME280;49970;54.976;73.248;2024-01-15T08:14:10;101396.25;;;-17.40;83.74
63819;BME280;49970;54.976;73.248;2024-01-15T08:16:36;101414.22;;;-17.35;83.70
63819;BME280;49970;54.976;73.248;2024-01-15T08:19:03;101413.53;;;-17.32;83.54
63819;BME280;49970;54.976;73.248;2024-01-15T08:21:30;101420.28;;;-17.33;83.62
63819;BME280;49970;54.976;73.248;2024-01-15T08:23:58;101416.94;;;-17.32;83.86
63819;BME280;49970;54.976;73.248;2024-01-15T08:26:25;101419.56;;;-17.30;84.30
63819;BME280;49970;54.976;73.248;2024-01-15T08:28:51;101424.72;;;-17.29;83.95
63819;BME280;49970;54.976;73.248;2024-01-15T08:31:17;101420.53;;;-17.28;84.48
63819;BME280;49970;54.976;73.248;2024-01-15T08:33:44;101430.84;;;-17.25;84.61
63819;BME280;49970;54.976;73.248;2024-01-15T08:36:10;101433.47;;;-17.24;84.64
63819;BME280;49970;54.976;73.248;2024-01-15T08:38:36;101436.84;;;-17.23;84.52
63819;BME280;49970;54.976;73.248;2024-01-15T08:41:03;101438.59;;;-17.22;83.66
63819;BME280;49970;54.976;73.248;2024-01-15T08:43:29;101435.13;;;-17.24;84.34
63819;BME280;49970;54.976;73.248;2024-01-15T08:45:57;101438.72;;;-17.21;83.98
63819;BME280;49970;54.976;73.248;2024-01-15T08:48:42;101439.66;;;-17.19;84.65
63819;BME280;49970;54.976;73.248;2024-01-15T08:53:52;101445.59;;;-17.18;83.90
63819;BME280;49970;54.976;73.248;2024-01-15T08:56:19;101445.69;;;-17.17;84.74
63819;BME280;49970;54.976;73.248;2024-01-15T08:58:45;101456.78;;;-17.15;84.72
63819;BME280;49970;54.976;73.248;2024-01-15T09:01:30;101459.31;;;-17.15;84.85
63819;BME280;49970;54.976;73.248;2024-01-15T09:03:56;101460.09;;;-17.16;84.77
63819;BME280;49970;54.976;73.248;2024-01-15T09:06:45;101470.50;;;-17.11;83.81
63819;BME280;49970;54.976;73.248;2024-01-15T09:09:17;101458.25;;;-17.18;84.51
63819;BME280;49970;54.976;73.248;2024-01-15T09:11:43;101477.31;;;-17.10;84.91
63819;BME280;49970;54.976;73.248;2024-01-15T09:14:09;101482.47;;;-17.08;83.83
63819;BME280;49970;54.976;73.248;2024-01-15T09:16:35;101478.91;;;-17.12;84.54
63819;BME280;49970;54.976;73.248;2024-01-15T09:19:02;101487.38;;;-17.12;84.75
63819;BME280;49970;54.976;73.248;2024-01-15T09:21:29;101494.16;;;-17.11;84.95
63819;BME280;49970;54.976;73.248;2024-01-15T09:23:55;101501.88;;;-17.09;85.04
63819;BME280;49970;54.976;73.248;2024-01-15T09:26:21;101514.44;;;-17.11;84.39
63819;BME280;49970;54.976;73.248;2024-01-15T09:28:48;101522.16;;;-17.09;84.54
63819;BME280;49970;54.976;73.248;2024-01-15T09:31:14;101529.81;;;-17.07;83.66
63819;BME280;49970;54.976;73.248;2024-01-15T09:33:40;101499.38;;;-17.22;84.63
63819;BME280;49970;54.976;73.248;2024-01-15T09:36:07;101518.81;;;-17.08;84.19
63819;BME280;49970;54.976;73.248;2024-01-15T09:38:33;101522.03;;;-17.11;84.50
63819;BME280;49970;54.976;73.248;2024-01-15T09:43:44;101533.81;;;-17.11;84.26
63819;BME280;49970;54.976;73.248;2024-01-15T09:46:11;101528.56;;;-17.14;83.65
63819;BME280;49970;54.976;73.248;2024-01-15T09:48:38;101532.50;;;-17.19;84.61
63819;BME280;49970;54.976;73.248;2024-01-15T09:51:06;101534.34;;;-17.17;83.83
63819;BME280;49970;54.976;73.248;2024-01-15T09:53:34;101536.59;;;-17.21;84.48
63819;BME280;49970;54.976;73.248;2024-01-15T09:56:02;101547.88;;;-17.16;83.88
63819;BME280;49970;54.976;73.248;2024-01-15T09:58:29;101555.28;;;-17.19;83.46
63819;BME280;49970;54.976;73.248;2024-01-15T10:00:56;101564.75;;;-17.17;83.75
63819;BME280;49970;54.976;73.248;2024-01-15T10:03:41;101562.97;;;-17.18;83.66
63819;BME280;49970;54.976;73.248;2024-01-15T10:06:08;101574.69;;;-17.20;84.16
63819;BME280;49970;54.976;73.248;2024-01-15T10:08:36;101573.72;;;-17.22;83.48
63819;BME280;49970;54.976;73.248;2024-01-15T10:11:03;101565.81;;;-17.26;84.48
63819;BME280;49970;54.976;73.248;2024-01-15T10:16:19;101568.94;;;-17.30;84.33
63819;BME280;49970;54.976;73.248;2024-01-15T10:18:46;101580.13;;;-17.27;84.14
63819;BME280;49970;54.976;73.248;2024-01-15T10:21:32;101580.25;;;-17.25;83.96
63819;BME280;49970;54.976;73.248;2024-01-15T10:25:21;101586.88;;;-17.27;83.66
63819;BME280;49970;54.976;73.248;2024-01-15T10:28:52;101593.59;;;-17.28;84.25
63819;BME280;49970;54.976;73.248;2024-01-15T10:32:26;101589.19;;;-17.30;84.28
63819;BME280;49970;54.976;73.248;2024-01-15T10:35:59;101594.00;;;-17.35;84.03
63819;BME280;49970;54.976;73.248;2024-01-15T10:39:28;101604.03;;;-17.37;84.19
63819;BME280;49970;54.976;73.248;2024-01-15T10:42:59;101609.78;;;-17.39;84.20
63819;BME280;49970;54.976;73.248;2024-01-15T10:46:31;101613.88;;;-17.41;84.03
63819;BME280;49970;54.976;73.248;2024-01-15T10:50:01;101616.00;;;-17.47;82.79
63819;BME280;49970;54.976;73.248;2024-01-15T10:53:32;101618.66;;;-17.46;82.86
63819;BME280;49970;54.976;73.248;2024-01-15T10:56:19;101627.22;;;-17.44;83.49
63819;BME280;49970;54.976;73.248;2024-01-15T10:58:48;101630.63;;;-17.43;82.65
63819;BME280;49970;54.976;73.248;2024-01-15T11:01:15;101626.66;;;-17.53;83.74
63819;BME280;49970;54.976;73.248;2024-01-15T11:03:43;101642.31;;;-17.45;83.19
63819;BME280;49970;54.976;73.248;2024-01-15T11:06:19;101623.63;;;-17.61;83.42
63819;BME280;49970;54.976;73.248;2024-01-15T11:08:49;101643.69;;;-17.50;83.12
63819;BME280;49970;54.976;73.248;2024-01-15T11:11:17;101647.97;;;-17.49;83.60
63819;BME280;49970;54.976;73.248;2024-01-15T11:13:46;101647.69;;;-17.54;82.94
63819;BME280;49970;54.976;73.248;2024-01-15T11:16:15;101662.28;;;-17.50;82.92
63819;BME280;49970;54.976;73.248;2024-01-15T11:19:01;101659.63;;;-17.51;83.64
63819;BME280;49970;54.976;73.248;2024-01-15T11:21:28;101662.16;;;-17.51;83.09
63819;BME280;49970;54.976;73.248;2024-01-15T11:24:01;101668.00;;;-17.52;83.91
63819;BME280;49970;54.976;73.248;2024-01-15T11:26:46;101670.53;;;-17.52;82.49
63819;BME280;49970;54.976;73.248;2024-01-15T11:29:28;101665.41;;;-17.54;82.85
63819;BME280;49970;54.976;73.248;2024-01-15T11:37:25;101648.56;;;-17.67;83.67
63819;BME280;49970;54.976;73.248;2024-01-15T11:39:56;101664.31;;;-17.57;83.56
63819;BME280;49970;54.976;73.248;2024-01-15T11:42:41;101664.13;;;-17.61;83.42
63819;BME280;49970;54.976;73.248;2024-01-15T11:45:08;101669.19;;;-17.61;82.59
63819;BME280;49970;54.976;73.248;2024-01-15T11:48:15;101669.88;;;-17.63;83.96
63819;BME280;49970;54.976;73.248;2024-01-15T11:50:44;101673.28;;;-17.63;83.37
63819;BME280;49970;54.976;73.248;2024-01-15T11:53:40;101675.81;;;-17.63;83.17
63819;BME280;49970;54.976;73.248;2024-01-15T11:57:12;101666.47;;;-17.64;82.29
63819;BME280;49970;54.976;73.248;2024-01-15T12:01:10;101670.56;;;-17.66;83.31
63819;BME280;49970;54.976;73.248;2024-01-15T12:08:41;101693.66;;;-17.74;83.40
63819;BME280;49970;54.976;73.248;2024-01-15T12:11:11;101698.63;;;-17.76;83.17
63819;BME280;49970;54.976;73.248;2024-01-15T12:13:50;101702.03;;;-17.75;83.12
63819;BME280;49970;54.976;73.248;2024-01-15T12:16:37;101691.63;;;-17.80;83.29
63819;BME280;49970;54.976;73.248;2024-01-15T12:19:03;101704.44;;;-17.77;81.86
63819;BME280;49970;54.976;73.248;2024-01-15T12:24:27;101714.47;;;-17.78;81.74
63819;BME280;49970;54.976;73.248;2024-01-15T12:29:55;101713.19;;;-17.85;81.95
63819;BME280;49970;54.976;73.248;2024-01-15T12:32:23;101720.31;;;-17.79;82.15
63819;BME280;49970;54.976;73.248;2024-01-15T12:34:50;101728.78;;;-17.79;81.82
63819;BME280;49970;54.976;73.248;2024-01-15T12:37:19;101726.03;;;-17.82;82.49
63819;BME280;49970;54.976;73.248;2024-01-15T12:39:47;101731.97;;;-17.81;82.33
63819;BME280;49970;54.976;73.248;2024-01-15T12:42:33;101710.84;;;-17.95;82.92
63819;BME280;49970;54.976;73.248;2024-01-15T12:45:00;101717.66;;;-17.94;82.74
63819;BME280;49970;54.976;73.248;2024-01-15T12:47:27;101741.22;;;-17.82;82.15
63819;BME280;49970;54.976;73.248;2024-01-15T12:49:53;101753.88;;;-17.82;81.88
63819;BME280;49970;54.976;73.248;2024-01-15T12:52:28;101756.19;;;-17.85;82.93
63819;BME280;49970;54.976;73.248;2024-01-15T12:54:55;101762.81;;;-17.87;81.92
63819;BME280;49970;54.976;73.248;2024-01-15T12:58:00;101769.41;;;-17.89;82.93
63819;BME280;49970;54.976;73.248;2024-01-15T13:00:26;101766.69;;;-17.92;81.61
63819;BME280;49970;54.976;73.248;2024-01-15T13:02:53;101772.63;;;-17.92;81.52
63819;BME280;49970;54.976;73.248;2024-01-15T13:05:20;101770.75;;;-17.94;82.67
63819;BME280;49970;54.976;73.248;2024-01-15T13:07:58;101784.84;;;-17.98;81.40
63819;BME280;49970;54.976;73.248;2024-01-15T13:10:25;101779.78;;;-17.98;82.40
63819;BME280;49970;54.976;73.248;2024-01-15T13:12:51;101753.94;;;-18.19;82.41
63819;BME280;49970;54.976;73.248;2024-01-15T13:15:18;101788.94;;;-18.00;81.49
63819;BME280;49970;54.976;73.248;2024-01-15T13:17:44;101801.59;;;-18.00;82.31
63819;BME280;49970;54.976;73.248;2024-01-15T13:20:11;101803.34;;;-17.99;81.19
63819;BME280;49970;54.976;73.248;2024-01-15T13:22:37;101800.81;;;-17.99;81.58
63819;BME280;49970;54.976;73.248;2024-01-15T13:25:25;101800.59;;;-18.02;82.61
63819;BME280;49970;54.976;73.248;2024-01-15T13:27:51;101808.97;;;-18.03;82.01
63819;BME280;49970;54.976;73.248;2024-01-15T13:30:18;101815.69;;;-18.03;81.36
63819;BME280;49970;54.976;73.248;2024-01-15T13:32:44;101816.25;;;-18.07;81.43
63819;BME280;49970;54.976;73.248;2024-01-15T13:35:49;101826.16;;;-18.11;82.09
63819;BME280;49970;54.976;73.248;2024-01-15T13:38:16;101828.28;;;-18.17;81.94
63819;BME280;49970;54.976;73.248;2024-01-15T13:41:03;101831.59;;;-18.18;82.38
63819;BME280;49970;54.976;73.248;2024-01-15T13:43:31;101839.91;;;-18.19;82.16
63819;BME280;49970;54.976;73.248;2024-01-15T13:45:57;101844.97;;;-18.19;80.80
63819;BME280;49970;54.976;73.248;2024-01-15T13:49:02;101835.63;;;-18.20;81.55
63819;BME280;49970;54.976;73.248;2024-01-15T13:51:30;101834.00;;;-18.19;80.82
63819;BME280;49970;54.976;73.248;2024-01-15T13:57:52;101824.03;;;-18.29;80.91
63819;BME280;49970;54.976;73.248;2024-01-15T14:01:22;101840.06;;;-18.29;81.48
63819;BME280;49970;54.976;73.248;2024-01-15T14:04:34;101852.72;;;-18.29;80.77